Meteo Giornale » Osservazioni meteo Italia » Catania-Sigonella

ore: 16:55 - Osservazioni Meteo Catania-Sigonella
Lat. 37° 24' N Lon. 14° 55' E Alt. 22 metri s.l.m.

molto_nuvoloso Europe/Rome

13 °C

Molto Nuvoloso

Temp. 24 Ore

4 °C

15 °C

Nord

0 Km/h

Dew point 13 °C

Umidità 100 %

Visibilità  10 Km

Il sole sorge alle ore 07:04

Il sole tramonta alle ore 16:44

Data e Ora Cielo e Fenomeni T °C DP °C Um. % Pres. hPa Vis. km Vento km/h
Oggi h: 16:55 molto_nuvoloso Molto Nuvoloso 13 13 100 1018 10 N 0
Oggi h: 15:55 nuvoloso Nuvoloso 14 14 100 1018 10 N 0
Oggi h: 14:55 molto_nuvoloso Molto Nuvoloso 14 14 100 1018 10 N 0
Oggi h: 13:55 molto_nuvoloso Molto Nuvoloso 14 12 87 1018 10 N 0
Oggi h: 12:55 coperto_pioggia Pioviggine Leggera 10 5 71 1018 10 N 0
Oggi h: 11:55 nuvoloso Nuvoloso 10 4 66 1019 10 N 0
Oggi h: 10:55 poco_nuvoloso Poco Nuvoloso 15 7 58 1020 10 N 0
Oggi h: 09:55 poco_nuvoloso Poco Nuvoloso 11 8 81 1020 10 N 0
Oggi h: 08:55 poco_nuvoloso Poco Nuvoloso 9 9 100 1020 10 N 0
Oggi h: 06:55 sereno Sereno 4 4 100 1019 10 N 0
Oggi h: 05:55 poco_nuvoloso Poco Nuvoloso 5 5 100 1019 10 N 0
Oggi h: 04:55 poco_nuvoloso Poco Nuvoloso 5 5 100 1019 10 N 0
Oggi h: 03:55 poco_nuvoloso Poco Nuvoloso 6 6 100 1019 10 N 0
Oggi h: 02:55 nuvoloso Nuvoloso 6 6 100 1019 10 N 0
Oggi h: 01:55 molto_nuvoloso Molto Nuvoloso 8 8 100 1019 10 N 0
Oggi h: 00:55 molto_nuvoloso Molto Nuvoloso 8 8 100 1019 10 N 0
Ieri h: 23:55 molto_nuvoloso Molto Nuvoloso 10 10 100 1019 10 N 0
Ieri h: 22:55 molto_nuvoloso Molto Nuvoloso 10 9 93 1019 10 N 0
Ieri h: 21:55 molto_nuvoloso Molto Nuvoloso 10 10 100 1019 10 N 0
Ieri h: 20:55 molto_nuvoloso Molto Nuvoloso 10 10 100 1018 10 N 0
Ieri h: 19:55 molto_nuvoloso Molto Nuvoloso 11 8 81 1018 10 N 0
Ieri h: 18:55 molto_nuvoloso Molto Nuvoloso 11 7 76 1018 10 N 0
Ieri h: 17:55 nuvoloso Nuvoloso 12 7 71 1017 10 N 0